sensor_id;sensor_type;location;lat;lon;timestamp;temperature;humidity
5779;DHT22;2916;49.798;10.022;2023-03-01T00:00:17;-0.80;96.20
5779;DHT22;2916;49.798;10.022;2023-03-01T00:02:44;-0.80;96.40
5779;DHT22;2916;49.798;10.022;2023-03-01T00:05:11;-0.80;96.40
5779;DHT22;2916;49.798;10.022;2023-03-01T00:07:38;-0.80;96.20
5779;DHT22;2916;49.798;10.022;2023-03-01T00:10:05;-0.90;95.70
5779;DHT22;2916;49.798;10.022;2023-03-01T00:12:34;-0.90;96.20
5779;DHT22;2916;49.798;10.022;2023-03-01T00:15:02;-0.80;96.20
5779;DHT22;2916;49.798;10.022;2023-03-01T00:17:30;-0.90;96.10
5779;DHT22;2916;49.798;10.022;2023-03-01T00:19:57;-1.00;95.90
5779;DHT22;2916;49.798;10.022;2023-03-01T00:22:24;-1.00;96.80
5779;DHT22;2916;49.798;10.022;2023-03-01T00:24:53;-0.90;97.20
5779;DHT22;2916;49.798;10.022;2023-03-01T00:27:20;-0.90;96.90
5779;DHT22;2916;49.798;10.022;2023-03-01T00:29:48;-0.90;97.30
5779;DHT22;2916;49.798;10.022;2023-03-01T00:32:15;-0.90;97.20
5779;DHT22;2916;49.798;10.022;2023-03-01T00:34:42;-0.90;97.30
5779;DHT22;2916;49.798;10.022;2023-03-01T00:37:19;-0.90;97.30
5779;DHT22;2916;49.798;10.022;2023-03-01T00:39:47;-1.00;98.90
5779;DHT22;2916;49.798;10.022;2023-03-01T00:42:14;-1.00;99.60
5779;DHT22;2916;49.798;10.022;2023-03-01T00:44:41;-1.00;99.70
5779;DHT22;2916;49.798;10.022;2023-03-01T00:47:09;-1.00;99.90
5779;DHT22;2916;49.798;10.022;2023-03-01T00:49:36;-1.00;99.90
5779;DHT22;2916;49.798;10.022;2023-03-01T00:52:03;-1.00;99.90
5779;DHT22;2916;49.798;10.022;2023-03-01T00:54:30;-1.10;99.90
5779;DHT22;2916;49.798;10.022;2023-03-01T00:56:57;-1.10;99.90
5779;DHT22;2916;49.798;10.022;2023-03-01T00:59:24;-1.10;99.90
5779;DHT22;2916;49.798;10.022;2023-03-01T01:01:50;-1.10;99.90
5779;DHT22;2916;49.798;10.022;2023-03-01T01:04:19;-1.10;99.90
5779;DHT22;2916;49.798;10.022;2023-03-01T01:06:46;-1.20;99.90
5779;DHT22;2916;49.798;10.022;2023-03-01T01:09:15;-1.20;99.90
5779;DHT22;2916;49.798;10.022;2023-03-01T01:11:44;-1.20;99.90
5779;DHT22;2916;49.798;10.022;2023-03-01T01:14:11;-1.20;99.90
5779;DHT22;2916;49.798;10.022;2023-03-01T01:16:38;-1.20;99.90
5779;DHT22;2916;49.798;10.022;2023-03-01T01:19:05;-1.20;99.90
5779;DHT22;2916;49.798;10.022;2023-03-01T01:21:34;-1.20;99.90
5779;DHT22;2916;49.798;10.022;2023-03-01T01:24:03;-1.20;99.90
5779;DHT22;2916;49.798;10.022;2023-03-01T01:26:31;-1.20;99.90
5779;DHT22;2916;49.798;10.022;2023-03-01T01:28:59;-1.20;99.90
5779;DHT22;2916;49.798;10.022;2023-03-01T01:31:27;-1.30;99.90
5779;DHT22;2916;49.798;10.022;2023-03-01T01:33:55;-1.30;99.90
5779;DHT22;2916;49.798;10.022;2023-03-01T01:36:22;-1.40;99.90
5779;DHT22;2916;49.798;10.022;2023-03-01T01:38:51;-1.30;99.90
5779;DHT22;2916;49.798;10.022;2023-03-01T01:41:18;-1.30;99.90
5779;DHT22;2916;49.798;10.022;2023-03-01T01:43:47;-1.20;99.90
5779;DHT22;2916;49.798;10.022;2023-03-01T01:46:21;-1.30;99.90
5779;DHT22;2916;49.798;10.022;2023-03-01T01:48:53;-1.20;99.90
5779;DHT22;2916;49.798;10.022;2023-03-01T01:51:29;-1.20;99.90
5779;DHT22;2916;49.798;10.022;2023-03-01T01:54:08;-1.30;99.90
5779;DHT22;2916;49.798;10.022;2023-03-01T01:56:36;-1.30;99.90
5779;DHT22;2916;49.798;10.022;2023-03-01T01:59:04;-1.30;99.90
5779;DHT22;2916;49.798;10.022;2023-03-01T02:01:31;-1.30;99.90
5779;DHT22;2916;49.798;10.022;2023-03-01T02:03:58;-1.40;99.90
5779;DHT22;2916;49.798;10.022;2023-03-01T02:06:28;-1.50;99.90
5779;DHT22;2916;49.798;10.022;2023-03-01T02:08:59;-1.50;99.90
5779;DHT22;2916;49.798;10.022;2023-03-01T02:11:29;-1.50;99.90
5779;DHT22;2916;49.798;10.022;2023-03-01T02:13:57;-1.50;99.90
5779;DHT22;2916;49.798;10.022;2023-03-01T02:16:26;-1.40;99.90
5779;DHT22;2916;49.798;10.022;2023-03-01T02:18:54;-1.40;99.90
5779;DHT22;2916;49.798;10.022;2023-03-01T02:21:30;-1.40;99.90
5779;DHT22;2916;49.798;10.022;2023-03-01T02:24:08;-1.40;99.90
5779;DHT22;2916;49.798;10.022;2023-03-01T02:26:47;-1.40;99.90
5779;DHT22;2916;49.798;10.022;2023-03-01T02:29:16;-1.40;99.90
5779;DHT22;2916;49.798;10.022;2023-03-01T02:31:43;-1.40;99.90
5779;DHT22;2916;49.798;10.022;2023-03-01T02:34:13;-1.30;99.90
5779;DHT22;2916;49.798;10.022;2023-03-01T02:36:43;-1.40;99.90
5779;DHT22;2916;49.798;10.022;2023-03-01T02:39:18;-1.40;99.90
5779;DHT22;2916;49.798;10.022;2023-03-01T02:41:49;-1.40;99.90
5779;DHT22;2916;49.798;10.022;2023-03-01T02:44:19;-1.40;99.90
5779;DHT22;2916;49.798;10.022;2023-03-01T02:46:48;-1.40;99.90
5779;DHT22;2916;49.798;10.022;2023-03-01T02:49:19;-1.40;99.90
5779;DHT22;2916;49.798;10.022;2023-03-01T02:51:56;-1.40;99.90
5779;DHT22;2916;49.798;10.022;2023-03-01T02:54:26;-1.50;99.90
5779;DHT22;2916;49.798;10.022;2023-03-01T02:56:55;-1.50;99.90
5779;DHT22;2916;49.798;10.022;2023-03-01T02:59:26;-1.50;99.90
5779;DHT22;2916;49.798;10.022;2023-03-01T03:01:55;-1.40;99.90
5779;DHT22;2916;49.798;10.022;2023-03-01T03:04:22;-1.50;99.90
5779;DHT22;2916;49.798;10.022;2023-03-01T03:06:50;-1.50;99.90
5779;DHT22;2916;49.798;10.022;2023-03-01T03:09:18;-1.50;99.90
5779;DHT22;2916;49.798;10.022;2023-03-01T03:11:45;-1.50;99.90
5779;DHT22;2916;49.798;10.022;2023-03-01T03:14:14;-1.60;99.90
5779;DHT22;2916;49.798;10.022;2023-03-01T03:16:44;-1.60;99.90
5779;DHT22;2916;49.798;10.022;2023-03-01T03:19:12;-1.60;99.90
5779;DHT22;2916;49.798;10.022;2023-03-01T03:21:39;-1.60;99.90
5779;DHT22;2916;49.798;10.022;2023-03-01T03:24:06;-1.60;99.90
5779;DHT22;2916;49.798;10.022;2023-03-01T03:26:33;-1.70;99.90
5779;DHT22;2916;49.798;10.022;2023-03-01T03:29:00;-1.70;99.90
5779;DHT22;2916;49.798;10.022;2023-03-01T03:31:27;-1.70;99.90
5779;DHT22;2916;49.798;10.022;2023-03-01T03:33:56;-1.70;99.90
5779;DHT22;2916;49.798;10.022;2023-03-01T03:36:24;-1.70;99.90
5779;DHT22;2916;49.798;10.022;2023-03-01T03:38:51;-1.70;99.90
5779;DHT22;2916;49.798;10.022;2023-03-01T03:41:18;-1.70;99.90
5779;DHT22;2916;49.798;10.022;2023-03-01T03:43:45;-1.70;99.90
5779;DHT22;2916;49.798;10.022;2023-03-01T03:46:14;-1.70;99.90
5779;DHT22;2916;49.798;10.022;2023-03-01T03:48:43;-1.70;99.90
5779;DHT22;2916;49.798;10.022;2023-03-01T03:51:12;-1.70;99.90
5779;DHT22;2916;49.798;10.022;2023-03-01T03:53:40;-1.80;99.90
5779;DHT22;2916;49.798;10.022;2023-03-01T03:56:07;-1.80;99.90
5779;DHT22;2916;49.798;10.022;2023-03-01T03:58:34;-1.70;99.90
5779;DHT22;2916;49.798;10.022;2023-03-01T04:01:01;-1.70;99.90
5779;DHT22;2916;49.798;10.022;2023-03-01T04:03:29;-1.70;99.90
5779;DHT22;2916;49.798;10.022;2023-03-01T04:05:57;-1.70;99.90
5779;DHT22;2916;49.798;10.022;2023-03-01T04:08:27;-1.70;99.90
5779;DHT22;2916;49.798;10.022;2023-03-01T04:10:58;-1.70;99.90
5779;DHT22;2916;49.798;10.022;2023-03-01T04:13:46;-1.70;99.90
5779;DHT22;2916;49.798;10.022;2023-03-01T04:16:13;-1.70;99.90
5779;DHT22;2916;49.798;10.022;2023-03-01T04:18:40;-1.60;99.90
5779;DHT22;2916;49.798;10.022;2023-03-01T04:21:06;-1.60;99.90
5779;DHT22;2916;49.798;10.022;2023-03-01T04:23:35;-1.60;99.90
5779;DHT22;2916;49.798;10.022;2023-03-01T04:26:02;-1.60;99.90
5779;DHT22;2916;49.798;10.022;2023-03-01T04:28:31;-1.60;99.90
5779;DHT22;2916;49.798;10.022;2023-03-01T04:31:03;-1.60;99.90
5779;DHT22;2916;49.798;10.022;2023-03-01T04:33:38;-1.60;99.90
5779;DHT22;2916;49.798;10.022;2023-03-01T04:36:06;-1.60;99.90
5779;DHT22;2916;49.798;10.022;2023-03-01T04:38:36;-1.60;99.90
5779;DHT22;2916;49.798;10.022;2023-03-01T04:41:04;-1.50;99.90
5779;DHT22;2916;49.798;10.022;2023-03-01T04:43:31;-1.60;99.90
5779;DHT22;2916;49.798;10.022;2023-03-01T04:46:03;-1.50;99.90
5779;DHT22;2916;49.798;10.022;2023-03-01T04:48:32;-1.50;99.90
5779;DHT22;2916;49.798;10.022;2023-03-01T04:50:59;-1.50;99.90
5779;DHT22;2916;49.798;10.022;2023-03-01T04:53:27;-1.50;99.90
5779;DHT22;2916;49.798;10.022;2023-03-01T04:55:56;-1.50;99.90
5779;DHT22;2916;49.798;10.022;2023-03-01T04:58:23;-1.60;99.90
5779;DHT22;2916;49.798;10.022;2023-03-01T05:00:50;-1.50;99.90
5779;DHT22;2916;49.798;10.022;2023-03-01T05:03:17;-1.50;99.90
5779;DHT22;2916;49.798;10.022;2023-03-01T05:05:46;-1.50;99.90
5779;DHT22;2916;49.798;10.022;2023-03-01T05:08:13;-1.50;99.90
5779;DHT22;2916;49.798;10.022;2023-03-01T05:10:45;-1.60;99.90
5779;DHT22;2916;49.798;10.022;2023-03-01T05:13:14;-1.60;99.90
5779;DHT22;2916;49.798;10.022;2023-03-01T05:15:47;-1.50;99.90
5779;DHT22;2916;49.798;10.022;2023-03-01T05:18:15;-1.50;99.90
5779;DHT22;2916;49.798;10.022;2023-03-01T05:20:42;-1.60;99.90
5779;DHT22;2916;49.798;10.022;2023-03-01T05:23:10;-1.70;99.90
5779;DHT22;2916;49.798;10.022;2023-03-01T05:25:37;-1.60;99.90
5779;DHT22;2916;49.798;10.022;2023-03-01T05:28:06;-1.60;99.90
5779;DHT22;2916;49.798;10.022;2023-03-01T05:30:36;-1.60;99.90
5779;DHT22;2916;49.798;10.022;2023-03-01T05:33:05;-1.70;99.90
5779;DHT22;2916;49.798;10.022;2023-03-01T05:35:39;-1.70;99.90
5779;DHT22;2916;49.798;10.022;2023-03-01T05:38:06;-1.60;99.90
5779;DHT22;2916;49.798;10.022;2023-03-01T05:40:33;-1.70;99.90
5779;DHT22;2916;49.798;10.022;2023-03-01T05:43:01;-1.70;99.90
5779;DHT22;2916;49.798;10.022;2023-03-01T05:45:31;-1.70;99.90
5779;DHT22;2916;49.798;10.022;2023-03-01T05:48:00;-1.70;99.90
5779;DHT22;2916;49.798;10.022;2023-03-01T05:50:28;-1.70;99.90
5779;DHT22;2916;49.798;10.022;2023-03-01T05:53:00;-1.80;99.90
5779;DHT22;2916;49.798;10.022;2023-03-01T05:55:29;-1.80;99.90
5779;DHT22;2916;49.798;10.022;2023-03-01T05:57:58;-1.80;99.90
5779;DHT22;2916;49.798;10.022;2023-03-01T06:00:26;-1.80;99.90
5779;DHT22;2916;49.798;10.022;2023-03-01T06:02:53;-1.80;99.90
5779;DHT22;2916;49.798;10.022;2023-03-01T06:05:21;-1.90;99.90
5779;DHT22;2916;49.798;10.022;2023-03-01T06:07:49;-1.90;99.90
5779;DHT22;2916;49.798;10.022;2023-03-01T06:10:17;-1.90;99.90
5779;DHT22;2916;49.798;10.022;2023-03-01T06:12:45;-1.80;99.90
5779;DHT22;2916;49.798;10.022;2023-03-01T06:15:13;-1.90;99.90
5779;DHT22;2916;49.798;10.022;2023-03-01T06:17:43;-1.90;99.90
5779;DHT22;2916;49.798;10.022;2023-03-01T06:20:13;-1.90;99.90
5779;DHT22;2916;49.798;10.022;2023-03-01T06:22:41;-1.90;99.90
5779;DHT22;2916;49.798;10.022;2023-03-01T06:25:10;-1.90;99.90
5779;DHT22;2916;49.798;10.022;2023-03-01T06:27:38;-1.80;99.90
5779;DHT22;2916;49.798;10.022;2023-03-01T06:30:06;-1.80;99.90
5779;DHT22;2916;49.798;10.022;2023-03-01T06:32:33;-1.80;99.90
5779;DHT22;2916;49.798;10.022;2023-03-01T06:35:00;-1.70;99.90
5779;DHT22;2916;49.798;10.022;2023-03-01T06:37:27;-1.70;99.90
5779;DHT22;2916;49.798;10.022;2023-03-01T06:39:55;-1.70;99.90
5779;DHT22;2916;49.798;10.022;2023-03-01T06:42:23;-1.60;99.90
5779;DHT22;2916;49.798;10.022;2023-03-01T06:44:49;-1.50;99.90
5779;DHT22;2916;49.798;10.022;2023-03-01T06:47:16;-1.50;99.90
5779;DHT22;2916;49.798;10.022;2023-03-01T06:49:43;-1.40;99.90
5779;DHT22;2916;49.798;10.022;2023-03-01T06:52:10;-1.40;99.90
5779;DHT22;2916;49.798;10.022;2023-03-01T06:54:37;-1.30;99.90
5779;DHT22;2916;49.798;10.022;2023-03-01T06:57:06;-1.30;99.90
5779;DHT22;2916;49.798;10.022;2023-03-01T06:59:32;-1.30;99.90
5779;DHT22;2916;49.798;10.022;2023-03-01T07:02:00;-1.20;99.90
5779;DHT22;2916;49.798;10.022;2023-03-01T07:04:26;-1.20;99.90
5779;DHT22;2916;49.798;10.022;2023-03-01T07:06:56;-1.10;99.90
5779;DHT22;2916;49.798;10.022;2023-03-01T07:09:24;-1.10;99.90
5779;DHT22;2916;49.798;10.022;2023-03-01T07:11:51;-0.90;99.90
5779;DHT22;2916;49.798;10.022;2023-03-01T07:14:19;-0.40;99.90
5779;DHT22;2916;49.798;10.022;2023-03-01T07:16:46;0.00;94.30
5779;DHT22;2916;49.798;10.022;2023-03-01T07:19:13;0.40;82.60
5779;DHT22;2916;49.798;10.022;2023-03-01T07:21:40;0.60;71.10
5779;DHT22;2916;49.798;10.022;2023-03-01T07:24:09;0.90;63.30
5779;DHT22;2916;49.798;10.022;2023-03-01T07:26:36;1.30;55.00
5779;DHT22;2916;49.798;10.022;2023-03-01T07:29:05;1.60;44.10
5779;DHT22;2916;49.798;10.022;2023-03-01T07:31:34;1.80;33.50
5779;DHT22;2916;49.798;10.022;2023-03-01T07:34:01;2.00;27.10
5779;DHT22;2916;49.798;10.022;2023-03-01T07:36:28;1.90;23.30
5779;DHT22;2916;49.798;10.022;2023-03-01T07:38:55;2.20;25.40
5779;DHT22;2916;49.798;10.022;2023-03-01T07:41:23;2.50;22.30
5779;DHT22;2916;49.798;10.022;2023-03-01T07:43:50;2.90;20.50
5779;DHT22;2916;49.798;10.022;2023-03-01T07:46:17;3.10;15.00
5779;DHT22;2916;49.798;10.022;2023-03-01T07:48:46;2.60;12.40
5779;DHT22;2916;49.798;10.022;2023-03-01T07:51:13;3.00;10.00
5779;DHT22;2916;49.798;10.022;2023-03-01T07:53:40;3.00;6.80
5779;DHT22;2916;49.798;10.022;2023-03-01T07:56:10;3.00;8.50
5779;DHT22;2916;49.798;10.022;2023-03-01T07:58:38;3.30;7.00
5779;DHT22;2916;49.798;10.022;2023-03-01T08:01:08;3.50;2.40
5779;DHT22;2916;49.798;10.022;2023-03-01T08:03:36;3.60;1.00
5779;DHT22;2916;49.798;10.022;2023-03-01T08:06:07;3.50;1.00
5779;DHT22;2916;49.798;10.022;2023-03-01T08:08:35;3.60;1.00
5779;DHT22;2916;49.798;10.022;2023-03-01T08:11:04;3.30;1.00
5779;DHT22;2916;49.798;10.022;2023-03-01T08:13:32;2.90;1.00
5779;DHT22;2916;49.798;10.022;2023-03-01T08:16:01;3.00;1.00
5779;DHT22;2916;49.798;10.022;2023-03-01T08:18:28;2.60;1.00
5779;DHT22;2916;49.798;10.022;2023-03-01T08:20:55;2.80;1.00
5779;DHT22;2916;49.798;10.022;2023-03-01T08:23:24;3.20;1.00
5779;DHT22;2916;49.798;10.022;2023-03-01T08:25:51;3.30;1.00
5779;DHT22;2916;49.798;10.022;2023-03-01T08:28:18;3.20;4.30
5779;DHT22;2916;49.798;10.022;2023-03-01T08:30:45;3.40;1.00
5779;DHT22;2916;49.798;10.022;2023-03-01T08:33:12;3.40;1.80
5779;DHT22;2916;49.798;10.022;2023-03-01T08:35:39;3.60;1.00
5779;DHT22;2916;49.798;10.022;2023-03-01T08:38:06;3.90;1.00
5779;DHT22;2916;49.798;10.022;2023-03-01T08:40:34;3.40;1.00
5779;DHT22;2916;49.798;10.022;2023-03-01T08:43:01;3.70;1.00
5779;DHT22;2916;49.798;10.022;2023-03-01T08:45:28;3.50;1.00
5779;DHT22;2916;49.798;10.022;2023-03-01T08:47:55;3.50;1.00
5779;DHT22;2916;49.798;10.022;2023-03-01T08:50:23;3.70;1.00
5779;DHT22;2916;49.798;10.022;2023-03-01T08:52:50;3.60;1.00
5779;DHT22;2916;49.798;10.022;2023-03-01T08:55:17;3.40;1.00
5779;DHT22;2916;49.798;10.022;2023-03-01T08:57:45;3.70;1.00
5779;DHT22;2916;49.798;10.022;2023-03-01T09:00:13;3.80;1.00
5779;DHT22;2916;49.798;10.022;2023-03-01T09:02:43;4.10;1.00
5779;DHT22;2916;49.798;10.022;2023-03-01T09:05:10;4.10;1.00
5779;DHT22;2916;49.798;10.022;2023-03-01T09:07:37;4.20;1.00
5779;DHT22;2916;49.798;10.022;2023-03-01T09:10:04;4.30;1.00
5779;DHT22;2916;49.798;10.022;2023-03-01T09:12:32;3.90;1.00
5779;DHT22;2916;49.798;10.022;2023-03-01T09:15:00;4.30;1.00
5779;DHT22;2916;49.798;10.022;2023-03-01T09:17:27;4.50;1.00
5779;DHT22;2916;49.798;10.022;2023-03-01T09:19:54;4.80;1.00
5779;DHT22;2916;49.798;10.022;2023-03-01T09:22:21;4.20;1.00
5779;DHT22;2916;49.798;10.022;2023-03-01T09:24:48;4.40;1.00
5779;DHT22;2916;49.798;10.022;2023-03-01T09:27:15;4.50;1.00
5779;DHT22;2916;49.798;10.022;2023-03-01T09:29:44;4.50;1.00
5779;DHT22;2916;49.798;10.022;2023-03-01T09:32:12;4.50;1.00
5779;DHT22;2916;49.798;10.022;2023-03-01T09:34:39;4.30;1.00
5779;DHT22;2916;49.798;10.022;2023-03-01T09:37:20;4.70;1.00
5779;DHT22;2916;49.798;10.022;2023-03-01T09:39:47;4.30;1.00
5779;DHT22;2916;49.798;10.022;2023-03-01T09:42:14;4.40;1.00
5779;DHT22;2916;49.798;10.022;2023-03-01T09:44:45;4.30;1.00
5779;DHT22;2916;49.798;10.022;2023-03-01T09:47:18;4.10;1.00
5779;DHT22;2916;49.798;10.022;2023-03-01T09:50:00;4.20;1.00
5779;DHT22;2916;49.798;10.022;2023-03-01T09:52:33;4.40;1.00
5779;DHT22;2916;49.798;10.022;2023-03-01T09:55:05;4.60;1.00
5779;DHT22;2916;49.798;10.022;2023-03-01T09:57:41;4.70;1.00
5779;DHT22;2916;49.798;10.022;2023-03-01T10:00:19;5.00;1.00
5779;DHT22;2916;49.798;10.022;2023-03-01T10:02:51;4.90;1.00
5779;DHT22;2916;49.798;10.022;2023-03-01T10:05:30;5.10;1.00
5779;DHT22;2916;49.798;10.022;2023-03-01T10:08:06;5.10;1.00
5779;DHT22;2916;49.798;10.022;2023-03-01T10:10:45;5.00;1.00
5779;DHT22;2916;49.798;10.022;2023-03-01T10:13:17;5.10;1.00
5779;DHT22;2916;49.798;10.022;2023-03-01T10:15:50;5.40;1.00
5779;DHT22;2916;49.798;10.022;2023-03-01T10:18:24;4.90;1.00
5779;DHT22;2916;49.798;10.022;2023-03-01T10:20:53;4.70;1.00
5779;DHT22;2916;49.798;10.022;2023-03-01T10:23:23;4.70;1.00
5779;DHT22;2916;49.798;10.022;2023-03-01T10:26:10;4.80;1.00
5779;DHT22;2916;49.798;10.022;2023-03-01T10:28:48;5.00;1.00
5779;DHT22;2916;49.798;10.022;2023-03-01T10:31:20;4.70;1.00
5779;DHT22;2916;49.798;10.022;2023-03-01T10:33:49;4.50;1.00
5779;DHT22;2916;49.798;10.022;2023-03-01T10:36:20;5.10;1.00
5779;DHT22;2916;49.798;10.022;2023-03-01T10:38:50;4.80;1.00
5779;DHT22;2916;49.798;10.022;2023-03-01T10:41:19;4.90;1.00
5779;DHT22;2916;49.798;10.022;2023-03-01T10:43:50;5.00;1.00
5779;DHT22;2916;49.798;10.022;2023-03-01T10:46:26;5.40;1.00
5779;DHT22;2916;49.798;10.022;2023-03-01T10:49:14;5.30;1.00
5779;DHT22;2916;49.798;10.022;2023-03-01T10:51:43;5.30;1.00
5779;DHT22;2916;49.798;10.022;2023-03-01T10:54:19;5.60;1.00
5779;DHT22;2916;49.798;10.022;2023-03-01T10:56:51;5.80;1.00
5779;DHT22;2916;49.798;10.022;2023-03-01T10:59:26;6.00;1.00
5779;DHT22;2916;49.798;10.022;2023-03-01T11:02:16;6.20;1.00
5779;DHT22;2916;49.798;10.022;2023-03-01T11:04:59;6.30;1.00
5779;DHT22;2916;49.798;10.022;2023-03-01T11:07:26;5.90;1.00
5779;DHT22;2916;49.798;10.022;2023-03-01T11:09:54;6.10;1.00
5779;DHT22;2916;49.798;10.022;2023-03-01T11:12:21;5.90;1.00
5779;DHT22;2916;49.798;10.022;2023-03-01T11:14:50;6.10;1.00
5779;DHT22;2916;49.798;10.022;2023-03-01T11:17:21;6.30;1.00
5779;DHT22;2916;49.798;10.022;2023-03-01T11:20:02;6.60;1.00
5779;DHT22;2916;49.798;10.022;2023-03-01T11:22:33;6.40;1.00
5779;DHT22;2916;49.798;10.022;2023-03-01T11:25:02;6.70;1.00
5779;DHT22;2916;49.798;10.022;2023-03-01T11:27:32;6.60;1.00
5779;DHT22;2916;49.798;10.022;2023-03-01T11:30:03;6.70;1.00
5779;DHT22;2916;49.798;10.022;2023-03-01T11:32:38;6.50;1.00
5779;DHT22;2916;49.798;10.022;2023-03-01T11:35:13;6.40;1.00
5779;DHT22;2916;49.798;10.022;2023-03-01T11:37:49;6.20;1.00
5779;DHT22;2916;49.798;10.022;2023-03-01T11:40:24;6.60;1.00
5779;DHT22;2916;49.798;10.022;2023-03-01T11:43:05;6.80;1.00
5779;DHT22;2916;49.798;10.022;2023-03-01T11:45:43;7.00;1.00
5779;DHT22;2916;49.798;10.022;2023-03-01T11:48:37;7.10;1.00
5779;DHT22;2916;49.798;10.022;2023-03-01T11:51:18;6.90;1.00
5779;DHT22;2916;49.798;10.022;2023-03-01T11:54:05;6.90;1.00
5779;DHT22;2916;49.798;10.022;2023-03-01T11:56:36;7.30;1.00
5779;DHT22;2916;49.798;10.022;2023-03-01T11:59:36;7.30;1.00
5779;DHT22;2916;49.798;10.022;2023-03-01T12:02:40;7.50;1.00
5779;DHT22;2916;49.798;10.022;2023-03-01T12:05:24;7.40;1.00
5779;DHT22;2916;49.798;10.022;2023-03-01T12:08:00;7.50;1.00
5779;DHT22;2916;49.798;10.022;2023-03-01T12:10:33;7.00;1.00
5779;DHT22;2916;49.798;10.022;2023-03-01T12:13:40;7.20;1.00
5779;DHT22;2916;49.798;10.022;2023-03-01T12:16:21;7.40;1.00
5779;DHT22;2916;49.798;10.022;2023-03-01T12:19:06;7.40;1.00
5779;DHT22;2916;49.798;10.022;2023-03-01T12:21:51;7.20;1.00
5779;DHT22;2916;49.798;10.022;2023-03-01T12:24:34;7.40;1.00
5779;DHT22;2916;49.798;10.022;2023-03-01T12:27:17;7.40;1.00
5779;DHT22;2916;49.798;10.022;2023-03-01T12:29:54;7.00;1.00
5779;DHT22;2916;49.798;10.022;2023-03-01T12:32:38;7.00;1.00
5779;DHT22;2916;49.798;10.022;2023-03-01T12:35:23;7.10;1.00
5779;DHT22;2916;49.798;10.022;2023-03-01T12:37:57;7.30;1.00
5779;DHT22;2916;49.798;10.022;2023-03-01T12:40:49;7.30;1.00
5779;DHT22;2916;49.798;10.022;2023-03-01T12:43:30;7.10;1.00
5779;DHT22;2916;49.798;10.022;2023-03-01T12:46:21;7.40;1.00
5779;DHT22;2916;49.798;10.022;2023-03-01T12:48:55;7.40;1.00
5779;DHT22;2916;49.798;10.022;2023-03-01T12:51:29;7.40;1.00
5779;DHT22;2916;49.798;10.022;2023-03-01T12:53:59;7.50;1.00
5779;DHT22;2916;49.798;10.022;2023-03-01T12:56:31;7.40;1.00
5779;DHT22;2916;49.798;10.022;2023-03-01T12:59:03;7.40;1.00
5779;DHT22;2916;49.798;10.022;2023-03-01T13:01:44;7.60;1.00
5779;DHT22;2916;49.798;10.022;2023-03-01T13:04:40;7.60;1.00
5779;DHT22;2916;49.798;10.022;2023-03-01T13:07:22;7.60;1.00
5779;DHT22;2916;49.798;10.022;2023-03-01T13:09:59;7.70;1.00
5779;DHT22;2916;49.798;10.022;2023-03-01T13:12:46;7.70;1.00
5779;DHT22;2916;49.798;10.022;2023-03-01T13:15:28;7.50;1.00
5779;DHT22;2916;49.798;10.022;2023-03-01T13:17:57;7.60;1.00
5779;DHT22;2916;49.798;10.022;2023-03-01T13:20:27;7.60;1.00
5779;DHT22;2916;49.798;10.022;2023-03-01T13:23:25;7.70;1.00
5779;DHT22;2916;49.798;10.022;2023-03-01T13:26:11;7.70;1.00
5779;DHT22;2916;49.798;10.022;2023-03-01T13:28:48;7.80;1.00
5779;DHT22;2916;49.798;10.022;2023-03-01T13:34:51;8.00;1.00
5779;DHT22;2916;49.798;10.022;2023-03-01T13:37:22;7.90;1.00
5779;DHT22;2916;49.798;10.022;2023-03-01T13:39:51;7.90;1.00
5779;DHT22;2916;49.798;10.022;2023-03-01T13:42:46;8.00;1.00
5779;DHT22;2916;49.798;10.022;2023-03-01T13:45:19;7.80;1.00
5779;DHT22;2916;49.798;10.022;2023-03-01T13:47:50;7.80;1.00
5779;DHT22;2916;49.798;10.022;2023-03-01T13:50:21;7.80;1.00
5779;DHT22;2916;49.798;10.022;2023-03-01T13:52:53;7.80;1.00
5779;DHT22;2916;49.798;10.022;2023-03-01T13:55:26;7.90;1.00
5779;DHT22;2916;49.798;10.022;2023-03-01T13:57:56;7.80;1.00
5779;DHT22;2916;49.798;10.022;2023-03-01T14:00:32;7.90;1.00
5779;DHT22;2916;49.798;10.022;2023-03-01T14:03:19;7.90;1.00
5779;DHT22;2916;49.798;10.022;2023-03-01T14:06:05;7.70;1.00
5779;DHT22;2916;49.798;10.022;2023-03-01T14:08:35;7.80;1.00
5779;DHT22;2916;49.798;10.022;2023-03-01T14:11:31;7.80;1.00
5779;DHT22;2916;49.798;10.022;2023-03-01T14:14:20;7.80;1.00
5779;DHT22;2916;49.798;10.022;2023-03-01T14:16:58;7.90;1.00
5779;DHT22;2916;49.798;10.022;2023-03-01T14:19:30;7.90;1.00
5779;DHT22;2916;49.798;10.022;2023-03-01T14:22:10;7.80;1.00
5779;DHT22;2916;49.798;10.022;2023-03-01T14:24:47;7.90;1.00
5779;DHT22;2916;49.798;10.022;2023-03-01T14:27:16;7.90;1.00
5779;DHT22;2916;49.798;10.022;2023-03-01T14:29:43;7.90;1.00
5779;DHT22;2916;49.798;10.022;2023-03-01T14:32:18;8.00;1.00
5779;DHT22;2916;49.798;10.022;2023-03-01T14:34:48;7.90;1.00
5779;DHT22;2916;49.798;10.022;2023-03-01T14:37:21;7.80;1.00
5779;DHT22;2916;49.798;10.022;2023-03-01T14:39:48;7.90;1.00
5779;DHT22;2916;49.798;10.022;2023-03-01T14:42:16;8.00;1.00
5779;DHT22;2916;49.798;10.022;2023-03-01T14:44:46;8.00;1.00
5779;DHT22;2916;49.798;10.022;2023-03-01T14:47:18;8.00;1.00
5779;DHT22;2916;49.798;10.022;2023-03-01T14:49:50;8.00;1.00
5779;DHT22;2916;49.798;10.022;2023-03-01T14:52:21;8.00;1.00
5779;DHT22;2916;49.798;10.022;2023-03-01T14:54:52;7.90;1.00
5779;DHT22;2916;49.798;10.022;2023-03-01T14:57:22;7.90;1.00
5779;DHT22;2916;49.798;10.022;2023-03-01T14:59:52;8.10;1.00
5779;DHT22;2916;49.798;10.022;2023-03-01T15:02:24;7.90;1.00
5779;DHT22;2916;49.798;10.022;2023-03-01T15:04:54;7.90;1.00
5779;DHT22;2916;49.798;10.022;2023-03-01T15:07:23;8.00;1.00
5779;DHT22;2916;49.798;10.022;2023-03-01T15:09:52;8.00;1.00
5779;DHT22;2916;49.798;10.022;2023-03-01T15:12:35;8.00;1.00
5779;DHT22;2916;49.798;10.022;2023-03-01T15:15:26;8.00;1.00
5779;DHT22;2916;49.798;10.022;2023-03-01T15:17:59;8.00;1.00
5779;DHT22;2916;49.798;10.022;2023-03-01T15:20:28;7.90;1.00
5779;DHT22;2916;49.798;10.022;2023-03-01T15:22:57;7.80;1.00
5779;DHT22;2916;49.798;10.022;2023-03-01T15:25:28;7.80;1.00
5779;DHT22;2916;49.798;10.022;2023-03-01T15:27:57;7.80;1.00
5779;DHT22;2916;49.798;10.022;2023-03-01T15:30:27;7.80;1.00
5779;DHT22;2916;49.798;10.022;2023-03-01T15:33:36;7.70;1.00
5779;DHT22;2916;49.798;10.022;2023-03-01T15:38:53;7.70;1.00
5779;DHT22;2916;49.798;10.022;2023-03-01T15:41:26;7.70;1.00
5779;DHT22;2916;49.798;10.022;2023-03-01T15:43:54;7.70;1.00
5779;DHT22;2916;49.798;10.022;2023-03-01T15:46:29;7.60;1.00
5779;DHT22;2916;49.798;10.022;2023-03-01T15:49:00;7.60;1.00
5779;DHT22;2916;49.798;10.022;2023-03-01T15:51:34;7.50;1.00
5779;DHT22;2916;49.798;10.022;2023-03-01T15:54:09;7.50;1.00
5779;DHT22;2916;49.798;10.022;2023-03-01T15:56:40;7.40;1.00
5779;DHT22;2916;49.798;10.022;2023-03-01T15:59:09;7.40;1.00
5779;DHT22;2916;49.798;10.022;2023-03-01T16:01:38;7.40;1.00
5779;DHT22;2916;49.798;10.022;2023-03-01T16:04:08;7.30;1.00
5779;DHT22;2916;49.798;10.022;2023-03-01T16:06:37;7.30;1.00
5779;DHT22;2916;49.798;10.022;2023-03-01T16:09:04;7.30;1.00
5779;DHT22;2916;49.798;10.022;2023-03-01T16:11:31;7.20;1.00
5779;DHT22;2916;49.798;10.022;2023-03-01T16:14:02;7.10;1.00
5779;DHT22;2916;49.798;10.022;2023-03-01T16:16:29;7.00;1.00
5779;DHT22;2916;49.798;10.022;2023-03-01T16:18:56;7.00;1.00
5779;DHT22;2916;49.798;10.022;2023-03-01T16:21:25;6.90;1.00
5779;DHT22;2916;49.798;10.022;2023-03-01T16:23:52;6.90;1.00
5779;DHT22;2916;49.798;10.022;2023-03-01T16:26:19;6.80;1.00
5779;DHT22;2916;49.798;10.022;2023-03-01T16:28:46;6.70;1.00
5779;DHT22;2916;49.798;10.022;2023-03-01T16:31:18;6.70;1.00
5779;DHT22;2916;49.798;10.022;2023-03-01T16:33:45;6.60;1.00